sensor_id;sensor_type;location;lat;lon;timestamp;P1;durP1;ratioP1;P2;durP2;ratioP2
49962;SDS011;36180;57.678;11.910;2023-04-10T00:00:00;6.13;;;2.90;;
49962;SDS011;36180;57.678;11.910;2023-04-10T00:02:31;5.97;;;2.67;;
49962;SDS011;36180;57.678;11.910;2023-04-10T00:04:58;7.13;;;2.78;;
49962;SDS011;36180;57.678;11.910;2023-04-10T00:07:25;4.35;;;2.55;;
49962;SDS011;36180;57.678;11.910;2023-04-10T00:09:53;3.20;;;2.53;;
49962;SDS011;36180;57.678;11.910;2023-04-10T00:12:20;3.80;;;3.05;;
49962;SDS011;36180;57.678;11.910;2023-04-10T00:14:47;3.28;;;2.50;;
49962;SDS011;36180;57.678;11.910;2023-04-10T00:17:14;5.22;;;2.70;;
49962;SDS011;36180;57.678;11.910;2023-04-10T00:19:42;3.05;;;2.65;;
49962;SDS011;36180;57.678;11.910;2023-04-10T00:22:10;4.30;;;3.17;;
49962;SDS011;36180;57.678;11.910;2023-04-10T00:24:37;4.20;;;2.92;;
49962;SDS011;36180;57.678;11.910;2023-04-10T00:27:04;4.10;;;2.95;;
49962;SDS011;36180;57.678;11.910;2023-04-10T00:29:31;7.35;;;3.20;;
49962;SDS011;36180;57.678;11.910;2023-04-10T00:31:58;6.03;;;2.95;;
49962;SDS011;36180;57.678;11.910;2023-04-10T00:34:25;5.85;;;3.13;;
49962;SDS011;36180;57.678;11.910;2023-04-10T00:36:53;4.93;;;3.20;;
49962;SDS011;36180;57.678;11.910;2023-04-10T00:39:20;5.70;;;3.00;;
49962;SDS011;36180;57.678;11.910;2023-04-10T00:41:47;5.82;;;3.42;;
49962;SDS011;36180;57.678;11.910;2023-04-10T00:44:15;3.95;;;2.78;;
49962;SDS011;36180;57.678;11.910;2023-04-10T00:46:42;5.03;;;2.83;;
49962;SDS011;36180;57.678;11.910;2023-04-10T00:49:09;5.93;;;2.85;;
49962;SDS011;36180;57.678;11.910;2023-04-10T00:51:36;5.22;;;3.15;;
49962;SDS011;36180;57.678;11.910;2023-04-10T00:54:04;4.30;;;3.10;;
49962;SDS011;36180;57.678;11.910;2023-04-10T00:56:34;6.35;;;3.28;;
49962;SDS011;36180;57.678;11.910;2023-04-10T00:59:03;4.22;;;2.90;;
49962;SDS011;36180;57.678;11.910;2023-04-10T01:01:30;5.15;;;3.35;;
49962;SDS011;36180;57.678;11.910;2023-04-10T01:03:57;5.63;;;3.20;;
49962;SDS011;36180;57.678;11.910;2023-04-10T01:06:26;11.02;;;3.10;;
49962;SDS011;36180;57.678;11.910;2023-04-10T01:09:02;4.68;;;2.95;;
49962;SDS011;36180;57.678;11.910;2023-04-10T01:11:37;5.40;;;3.58;;
49962;SDS011;36180;57.678;11.910;2023-04-10T01:14:14;6.43;;;3.03;;
49962;SDS011;36180;57.678;11.910;2023-04-10T01:16:46;4.30;;;3.15;;
49962;SDS011;36180;57.678;11.910;2023-04-10T01:19:23;6.03;;;2.83;;
49962;SDS011;36180;57.678;11.910;2023-04-10T01:21:53;4.97;;;3.10;;
49962;SDS011;36180;57.678;11.910;2023-04-10T01:24:27;5.30;;;3.30;;
49962;SDS011;36180;57.678;11.910;2023-04-10T01:27:04;4.75;;;3.17;;
49962;SDS011;36180;57.678;11.910;2023-04-10T01:29:38;6.35;;;3.13;;
49962;SDS011;36180;57.678;11.910;2023-04-10T01:32:09;4.95;;;2.80;;
49962;SDS011;36180;57.678;11.910;2023-04-10T01:34:39;6.15;;;3.17;;
49962;SDS011;36180;57.678;11.910;2023-04-10T01:37:11;4.18;;;2.83;;
49962;SDS011;36180;57.678;11.910;2023-04-10T01:39:41;4.45;;;3.00;;
49962;SDS011;36180;57.678;11.910;2023-04-10T01:42:10;5.15;;;3.38;;
49962;SDS011;36180;57.678;11.910;2023-04-10T01:44:41;4.78;;;3.20;;
49962;SDS011;36180;57.678;11.910;2023-04-10T01:47:11;4.72;;;3.08;;
49962;SDS011;36180;57.678;11.910;2023-04-10T01:49:39;6.03;;;3.33;;
49962;SDS011;36180;57.678;11.910;2023-04-10T01:52:09;6.28;;;3.28;;
49962;SDS011;36180;57.678;11.910;2023-04-10T01:54:37;5.57;;;3.30;;
49962;SDS011;36180;57.678;11.910;2023-04-10T01:57:04;5.28;;;3.50;;
49962;SDS011;36180;57.678;11.910;2023-04-10T01:59:53;5.38;;;3.75;;
49962;SDS011;36180;57.678;11.910;2023-04-10T02:02:21;4.78;;;3.50;;
49962;SDS011;36180;57.678;11.910;2023-04-10T02:04:48;4.38;;;3.30;;
49962;SDS011;36180;57.678;11.910;2023-04-10T02:07:17;5.70;;;3.30;;
49962;SDS011;36180;57.678;11.910;2023-04-10T02:09:47;8.77;;;3.50;;
49962;SDS011;36180;57.678;11.910;2023-04-10T02:12:20;5.68;;;3.88;;
49962;SDS011;36180;57.678;11.910;2023-04-10T02:14:49;3.78;;;2.97;;
49962;SDS011;36180;57.678;11.910;2023-04-10T02:17:23;6.45;;;3.35;;
49962;SDS011;36180;57.678;11.910;2023-04-10T02:19:53;5.07;;;2.92;;
49962;SDS011;36180;57.678;11.910;2023-04-10T02:22:20;5.93;;;3.30;;
49962;SDS011;36180;57.678;11.910;2023-04-10T02:24:49;5.32;;;3.95;;
49962;SDS011;36180;57.678;11.910;2023-04-10T02:27:25;5.13;;;3.20;;
49962;SDS011;36180;57.678;11.910;2023-04-10T02:29:53;6.05;;;3.80;;
49962;SDS011;36180;57.678;11.910;2023-04-10T02:32:22;9.52;;;3.58;;
49962;SDS011;36180;57.678;11.910;2023-04-10T02:34:49;6.80;;;3.53;;
49962;SDS011;36180;57.678;11.910;2023-04-10T02:37:17;7.47;;;3.92;;
49962;SDS011;36180;57.678;11.910;2023-04-10T02:39:44;6.28;;;3.63;;
49962;SDS011;36180;57.678;11.910;2023-04-10T02:42:11;5.22;;;3.20;;
49962;SDS011;36180;57.678;11.910;2023-04-10T02:44:41;5.45;;;3.70;;
49962;SDS011;36180;57.678;11.910;2023-04-10T02:47:08;6.15;;;3.80;;
49962;SDS011;36180;57.678;11.910;2023-04-10T02:49:39;8.65;;;4.10;;
49962;SDS011;36180;57.678;11.910;2023-04-10T02:52:11;9.82;;;3.88;;
49962;SDS011;36180;57.678;11.910;2023-04-10T02:54:39;4.93;;;3.72;;
49962;SDS011;36180;57.678;11.910;2023-04-10T02:57:06;5.43;;;3.85;;
49962;SDS011;36180;57.678;11.910;2023-04-10T02:59:33;6.32;;;4.10;;
49962;SDS011;36180;57.678;11.910;2023-04-10T03:02:02;6.50;;;3.45;;
49962;SDS011;36180;57.678;11.910;2023-04-10T03:04:33;7.95;;;3.25;;
49962;SDS011;36180;57.678;11.910;2023-04-10T03:07:01;6.78;;;3.75;;
49962;SDS011;36180;57.678;11.910;2023-04-10T03:09:28;5.50;;;4.18;;
49962;SDS011;36180;57.678;11.910;2023-04-10T03:11:55;5.70;;;3.55;;
49962;SDS011;36180;57.678;11.910;2023-04-10T03:14:22;4.47;;;3.40;;
49962;SDS011;36180;57.678;11.910;2023-04-10T03:16:50;5.97;;;3.60;;
49962;SDS011;36180;57.678;11.910;2023-04-10T03:19:17;7.28;;;4.05;;
49962;SDS011;36180;57.678;11.910;2023-04-10T03:21:44;6.88;;;3.35;;
49962;SDS011;36180;57.678;11.910;2023-04-10T03:24:12;5.38;;;3.83;;
49962;SDS011;36180;57.678;11.910;2023-04-10T03:26:40;8.77;;;3.63;;
49962;SDS011;36180;57.678;11.910;2023-04-10T03:29:07;5.05;;;3.33;;
49962;SDS011;36180;57.678;11.910;2023-04-10T03:31:34;5.50;;;3.40;;
49962;SDS011;36180;57.678;11.910;2023-04-10T03:34:01;8.75;;;4.18;;
49962;SDS011;36180;57.678;11.910;2023-04-10T03:36:28;5.60;;;3.20;;
49962;SDS011;36180;57.678;11.910;2023-04-10T03:38:55;7.57;;;3.50;;
49962;SDS011;36180;57.678;11.910;2023-04-10T03:41:24;5.93;;;3.90;;
49962;SDS011;36180;57.678;11.910;2023-04-10T03:43:51;6.22;;;3.08;;
49962;SDS011;36180;57.678;11.910;2023-04-10T03:46:19;5.22;;;3.03;;
49962;SDS011;36180;57.678;11.910;2023-04-10T03:48:46;4.35;;;3.28;;
49962;SDS011;36180;57.678;11.910;2023-04-10T03:51:15;7.50;;;3.65;;
49962;SDS011;36180;57.678;11.910;2023-04-10T03:53:43;8.00;;;3.65;;
49962;SDS011;36180;57.678;11.910;2023-04-10T03:56:14;5.10;;;3.63;;
49962;SDS011;36180;57.678;11.910;2023-04-10T03:58:44;4.72;;;3.50;;
49962;SDS011;36180;57.678;11.910;2023-04-10T04:01:12;4.20;;;3.10;;
49962;SDS011;36180;57.678;11.910;2023-04-10T04:04:02;7.47;;;3.25;;
49962;SDS011;36180;57.678;11.910;2023-04-10T04:06:55;5.28;;;3.10;;
49962;SDS011;36180;57.678;11.910;2023-04-10T04:09:22;5.53;;;3.03;;
49962;SDS011;36180;57.678;11.910;2023-04-10T04:12:08;4.35;;;3.10;;
49962;SDS011;36180;57.678;11.910;2023-04-10T04:15:09;6.38;;;3.50;;
49962;SDS011;36180;57.678;11.910;2023-04-10T04:17:36;7.22;;;3.45;;
49962;SDS011;36180;57.678;11.910;2023-04-10T04:20:06;5.65;;;3.20;;
49962;SDS011;36180;57.678;11.910;2023-04-10T04:23:09;5.72;;;3.55;;
49962;SDS011;36180;57.678;11.910;2023-04-10T04:26:06;7.35;;;3.63;;
49962;SDS011;36180;57.678;11.910;2023-04-10T04:28:47;5.38;;;3.50;;
49962;SDS011;36180;57.678;11.910;2023-04-10T04:31:35;5.93;;;3.33;;
49962;SDS011;36180;57.678;11.910;2023-04-10T04:34:03;4.90;;;3.60;;
49962;SDS011;36180;57.678;11.910;2023-04-10T04:36:42;4.93;;;3.42;;
49962;SDS011;36180;57.678;11.910;2023-04-10T04:39:27;4.63;;;3.03;;
49962;SDS011;36180;57.678;11.910;2023-04-10T04:42:20;5.38;;;3.38;;
49962;SDS011;36180;57.678;11.910;2023-04-10T04:45:00;4.88;;;3.10;;
49962;SDS011;36180;57.678;11.910;2023-04-10T04:47:47;7.40;;;3.13;;
49962;SDS011;36180;57.678;11.910;2023-04-10T04:50:19;5.38;;;2.90;;
49962;SDS011;36180;57.678;11.910;2023-04-10T04:53:05;5.47;;;3.22;;
49962;SDS011;36180;57.678;11.910;2023-04-10T04:55:58;7.05;;;3.92;;
49962;SDS011;36180;57.678;11.910;2023-04-10T04:58:55;4.53;;;3.00;;
49962;SDS011;36180;57.678;11.910;2023-04-10T05:01:39;4.47;;;2.90;;
49962;SDS011;36180;57.678;11.910;2023-04-10T05:04:26;3.95;;;3.08;;
49962;SDS011;36180;57.678;11.910;2023-04-10T05:07:05;3.85;;;2.85;;
49962;SDS011;36180;57.678;11.910;2023-04-10T05:09:50;4.93;;;3.10;;
49962;SDS011;36180;57.678;11.910;2023-04-10T05:12:36;3.97;;;2.85;;
49962;SDS011;36180;57.678;11.910;2023-04-10T05:15:27;4.85;;;2.88;;
49962;SDS011;36180;57.678;11.910;2023-04-10T05:18:17;5.70;;;2.78;;
49962;SDS011;36180;57.678;11.910;2023-04-10T05:21:04;4.45;;;2.90;;
49962;SDS011;36180;57.678;11.910;2023-04-10T05:23:50;4.22;;;2.58;;
49962;SDS011;36180;57.678;11.910;2023-04-10T05:26:27;4.53;;;2.53;;
49962;SDS011;36180;57.678;11.910;2023-04-10T05:29:08;3.55;;;2.67;;
49962;SDS011;36180;57.678;11.910;2023-04-10T05:31:53;5.30;;;3.10;;
49962;SDS011;36180;57.678;11.910;2023-04-10T05:34:56;4.25;;;2.58;;
49962;SDS011;36180;57.678;11.910;2023-04-10T05:37:51;3.45;;;2.40;;
49962;SDS011;36180;57.678;11.910;2023-04-10T05:40:27;3.25;;;2.40;;
49962;SDS011;36180;57.678;11.910;2023-04-10T05:43:06;4.10;;;2.53;;
49962;SDS011;36180;57.678;11.910;2023-04-10T05:45:52;4.20;;;2.63;;
49962;SDS011;36180;57.678;11.910;2023-04-10T05:48:37;7.32;;;2.90;;
49962;SDS011;36180;57.678;11.910;2023-04-10T05:51:23;3.17;;;2.33;;
49962;SDS011;36180;57.678;11.910;2023-04-10T05:54:14;4.60;;;2.42;;
49962;SDS011;36180;57.678;11.910;2023-04-10T05:56:59;4.20;;;3.08;;
49962;SDS011;36180;57.678;11.910;2023-04-10T06:00:06;4.28;;;2.78;;
49962;SDS011;36180;57.678;11.910;2023-04-10T06:02:39;3.47;;;2.45;;
49962;SDS011;36180;57.678;11.910;2023-04-10T06:05:14;3.35;;;2.28;;
49962;SDS011;36180;57.678;11.910;2023-04-10T06:07:42;4.57;;;2.22;;
49962;SDS011;36180;57.678;11.910;2023-04-10T06:10:10;5.55;;;2.35;;
49962;SDS011;36180;57.678;11.910;2023-04-10T06:12:38;8.13;;;2.70;;
49962;SDS011;36180;57.678;11.910;2023-04-10T06:15:08;5.47;;;2.50;;
49962;SDS011;36180;57.678;11.910;2023-04-10T06:17:40;4.30;;;2.50;;
49962;SDS011;36180;57.678;11.910;2023-04-10T06:20:08;4.43;;;2.65;;
49962;SDS011;36180;57.678;11.910;2023-04-10T06:22:36;3.22;;;2.35;;
49962;SDS011;36180;57.678;11.910;2023-04-10T06:25:04;3.60;;;2.20;;
49962;SDS011;36180;57.678;11.910;2023-04-10T06:27:33;3.65;;;2.50;;
49962;SDS011;36180;57.678;11.910;2023-04-10T06:30:01;4.20;;;2.53;;
49962;SDS011;36180;57.678;11.910;2023-04-10T06:32:28;4.82;;;2.50;;
49962;SDS011;36180;57.678;11.910;2023-04-10T06:34:56;3.78;;;2.47;;
49962;SDS011;36180;57.678;11.910;2023-04-10T06:37:27;4.70;;;2.53;;
49962;SDS011;36180;57.678;11.910;2023-04-10T06:40:00;3.42;;;2.83;;
49962;SDS011;36180;57.678;11.910;2023-04-10T06:42:29;4.20;;;2.55;;
49962;SDS011;36180;57.678;11.910;2023-04-10T06:45:02;2.70;;;2.15;;
49962;SDS011;36180;57.678;11.910;2023-04-10T06:47:29;3.28;;;2.38;;
49962;SDS011;36180;57.678;11.910;2023-04-10T06:49:57;3.15;;;2.63;;
49962;SDS011;36180;57.678;11.910;2023-04-10T06:52:24;4.25;;;2.30;;
49962;SDS011;36180;57.678;11.910;2023-04-10T06:54:51;4.30;;;2.00;;
49962;SDS011;36180;57.678;11.910;2023-04-10T06:57:18;5.13;;;2.22;;
49962;SDS011;36180;57.678;11.910;2023-04-10T06:59:45;4.45;;;2.10;;
49962;SDS011;36180;57.678;11.910;2023-04-10T07:02:13;3.42;;;1.90;;
49962;SDS011;36180;57.678;11.910;2023-04-10T07:04:40;3.80;;;1.98;;
49962;SDS011;36180;57.678;11.910;2023-04-10T07:07:08;3.90;;;2.08;;
49962;SDS011;36180;57.678;11.910;2023-04-10T07:09:36;3.13;;;1.80;;
49962;SDS011;36180;57.678;11.910;2023-04-10T07:12:03;3.28;;;1.80;;
49962;SDS011;36180;57.678;11.910;2023-04-10T07:14:31;2.63;;;2.05;;
49962;SDS011;36180;57.678;11.910;2023-04-10T07:16:59;3.72;;;1.77;;
49962;SDS011;36180;57.678;11.910;2023-04-10T07:19:28;4.13;;;1.67;;
49962;SDS011;36180;57.678;11.910;2023-04-10T07:21:55;3.85;;;2.10;;
49962;SDS011;36180;57.678;11.910;2023-04-10T07:24:22;4.15;;;1.90;;
49962;SDS011;36180;57.678;11.910;2023-04-10T07:26:49;3.08;;;1.90;;
49962;SDS011;36180;57.678;11.910;2023-04-10T07:29:17;2.53;;;1.98;;
49962;SDS011;36180;57.678;11.910;2023-04-10T07:31:44;1.75;;;1.65;;
49962;SDS011;36180;57.678;11.910;2023-04-10T07:34:11;3.53;;;2.28;;
49962;SDS011;36180;57.678;11.910;2023-04-10T07:36:40;2.42;;;1.80;;
49962;SDS011;36180;57.678;11.910;2023-04-10T07:39:08;2.72;;;1.75;;
49962;SDS011;36180;57.678;11.910;2023-04-10T07:41:35;2.85;;;1.90;;
49962;SDS011;36180;57.678;11.910;2023-04-10T07:44:02;4.53;;;2.08;;
49962;SDS011;36180;57.678;11.910;2023-04-10T07:46:29;2.83;;;2.05;;
49962;SDS011;36180;57.678;11.910;2023-04-10T07:48:56;2.88;;;2.10;;
49962;SDS011;36180;57.678;11.910;2023-04-10T07:51:23;4.18;;;2.00;;
49962;SDS011;36180;57.678;11.910;2023-04-10T07:53:53;3.72;;;2.00;;
49962;SDS011;36180;57.678;11.910;2023-04-10T07:56:20;2.90;;;1.75;;
49962;SDS011;36180;57.678;11.910;2023-04-10T07:58:47;3.35;;;1.75;;
49962;SDS011;36180;57.678;11.910;2023-04-10T08:01:14;2.53;;;1.50;;
49962;SDS011;36180;57.678;11.910;2023-04-10T08:03:42;2.35;;;1.70;;
49962;SDS011;36180;57.678;11.910;2023-04-10T08:06:10;3.60;;;1.52;;
49962;SDS011;36180;57.678;11.910;2023-04-10T08:08:37;2.70;;;1.30;;
49962;SDS011;36180;57.678;11.910;2023-04-10T08:11:07;2.97;;;1.65;;
49962;SDS011;36180;57.678;11.910;2023-04-10T08:13:48;2.83;;;1.85;;
49962;SDS011;36180;57.678;11.910;2023-04-10T08:16:17;4.22;;;1.83;;
49962;SDS011;36180;57.678;11.910;2023-04-10T08:18:46;2.58;;;1.75;;
49962;SDS011;36180;57.678;11.910;2023-04-10T08:21:13;4.45;;;1.65;;
49962;SDS011;36180;57.678;11.910;2023-04-10T08:23:40;2.38;;;1.70;;
49962;SDS011;36180;57.678;11.910;2023-04-10T08:26:08;2.70;;;1.70;;
49962;SDS011;36180;57.678;11.910;2023-04-10T08:28:35;3.22;;;1.80;;
49962;SDS011;36180;57.678;11.910;2023-04-10T08:31:02;2.63;;;1.70;;
49962;SDS011;36180;57.678;11.910;2023-04-10T08:33:30;1.60;;;1.48;;
49962;SDS011;36180;57.678;11.910;2023-04-10T08:35:57;3.38;;;1.70;;
49962;SDS011;36180;57.678;11.910;2023-04-10T08:38:24;6.10;;;1.70;;
49962;SDS011;36180;57.678;11.910;2023-04-10T08:40:52;3.63;;;2.00;;
49962;SDS011;36180;57.678;11.910;2023-04-10T08:43:20;2.67;;;1.48;;
49962;SDS011;36180;57.678;11.910;2023-04-10T08:45:47;2.08;;;1.50;;
49962;SDS011;36180;57.678;11.910;2023-04-10T08:48:15;2.65;;;1.63;;
49962;SDS011;36180;57.678;11.910;2023-04-10T08:50:45;2.15;;;1.95;;
49962;SDS011;36180;57.678;11.910;2023-04-10T08:53:12;3.75;;;1.95;;
49962;SDS011;36180;57.678;11.910;2023-04-10T08:55:40;3.05;;;1.77;;
49962;SDS011;36180;57.678;11.910;2023-04-10T08:58:07;3.08;;;1.88;;
49962;SDS011;36180;57.678;11.910;2023-04-10T09:00:36;2.47;;;1.80;;
49962;SDS011;36180;57.678;11.910;2023-04-10T09:03:04;3.60;;;1.52;;
49962;SDS011;36180;57.678;11.910;2023-04-10T09:05:35;2.97;;;1.88;;
49962;SDS011;36180;57.678;11.910;2023-04-10T09:08:02;3.08;;;1.60;;
49962;SDS011;36180;57.678;11.910;2023-04-10T09:10:29;4.13;;;1.80;;
49962;SDS011;36180;57.678;11.910;2023-04-10T09:12:56;2.63;;;1.60;;
49962;SDS011;36180;57.678;11.910;2023-04-10T09:15:23;2.20;;;1.70;;
49962;SDS011;36180;57.678;11.910;2023-04-10T09:17:58;3.17;;;1.70;;
49962;SDS011;36180;57.678;11.910;2023-04-10T09:20:27;4.07;;;2.03;;
49962;SDS011;36180;57.678;11.910;2023-04-10T09:22:55;3.90;;;1.63;;
49962;SDS011;36180;57.678;11.910;2023-04-10T09:25:32;3.70;;;1.48;;
49962;SDS011;36180;57.678;11.910;2023-04-10T09:28:04;2.50;;;1.80;;
49962;SDS011;36180;57.678;11.910;2023-04-10T09:30:33;1.55;;;1.40;;
49962;SDS011;36180;57.678;11.910;2023-04-10T09:33:02;3.10;;;1.65;;
49962;SDS011;36180;57.678;11.910;2023-04-10T09:35:47;2.45;;;1.80;;
49962;SDS011;36180;57.678;11.910;2023-04-10T09:38:14;2.42;;;1.85;;
49962;SDS011;36180;57.678;11.910;2023-04-10T09:40:42;3.85;;;2.47;;
49962;SDS011;36180;57.678;11.910;2023-04-10T09:43:17;2.95;;;1.73;;
49962;SDS011;36180;57.678;11.910;2023-04-10T09:45:45;4.32;;;1.65;;
49962;SDS011;36180;57.678;11.910;2023-04-10T09:48:14;2.42;;;1.73;;
49962;SDS011;36180;57.678;11.910;2023-04-10T09:50:42;5.10;;;1.70;;
49962;SDS011;36180;57.678;11.910;2023-04-10T09:53:09;2.70;;;1.90;;
49962;SDS011;36180;57.678;11.910;2023-04-10T09:55:37;2.70;;;1.52;;
49962;SDS011;36180;57.678;11.910;2023-04-10T09:58:04;2.50;;;1.70;;
49962;SDS011;36180;57.678;11.910;2023-04-10T10:00:32;5.47;;;1.80;;
49962;SDS011;36180;57.678;11.910;2023-04-10T10:03:04;5.82;;;2.20;;
49962;SDS011;36180;57.678;11.910;2023-04-10T10:05:35;2.88;;;2.00;;
49962;SDS011;36180;57.678;11.910;2023-04-10T10:08:03;3.78;;;2.10;;
49962;SDS011;36180;57.678;11.910;2023-04-10T10:10:31;3.30;;;1.88;;
49962;SDS011;36180;57.678;11.910;2023-04-10T10:12:58;4.53;;;2.10;;
49962;SDS011;36180;57.678;11.910;2023-04-10T10:15:28;7.30;;;2.28;;
49962;SDS011;36180;57.678;11.910;2023-04-10T10:18:06;3.22;;;2.03;;
49962;SDS011;36180;57.678;11.910;2023-04-10T10:20:44;2.00;;;1.73;;
49962;SDS011;36180;57.678;11.910;2023-04-10T10:23:11;7.57;;;2.28;;
49962;SDS011;36180;57.678;11.910;2023-04-10T10:25:39;5.18;;;2.10;;
49962;SDS011;36180;57.678;11.910;2023-04-10T10:28:07;5.18;;;2.17;;
49962;SDS011;36180;57.678;11.910;2023-04-10T10:30:38;4.63;;;2.35;;
49962;SDS011;36180;57.678;11.910;2023-04-10T10:33:07;4.97;;;2.00;;
49962;SDS011;36180;57.678;11.910;2023-04-10T10:35:36;3.80;;;2.10;;
49962;SDS011;36180;57.678;11.910;2023-04-10T10:38:04;3.30;;;2.05;;
49962;SDS011;36180;57.678;11.910;2023-04-10T10:40:33;2.30;;;1.60;;
49962;SDS011;36180;57.678;11.910;2023-04-10T10:43:11;3.95;;;2.05;;
49962;SDS011;36180;57.678;11.910;2023-04-10T10:45:41;6.03;;;2.03;;
49962;SDS011;36180;57.678;11.910;2023-04-10T10:48:14;3.50;;;2.20;;
49962;SDS011;36180;57.678;11.910;2023-04-10T10:50:51;3.72;;;2.22;;
49962;SDS011;36180;57.678;11.910;2023-04-10T10:53:35;4.28;;;2.55;;
49962;SDS011;36180;57.678;11.910;2023-04-10T10:58:58;4.22;;;2.10;;
49962;SDS011;36180;57.678;11.910;2023-04-10T11:01:26;6.03;;;2.35;;
49962;SDS011;36180;57.678;11.910;2023-04-10T11:03:53;5.78;;;2.50;;
49962;SDS011;36180;57.678;11.910;2023-04-10T11:06:24;4.30;;;2.22;;
49962;SDS011;36180;57.678;11.910;2023-04-10T11:12:15;4.53;;;2.17;;
49962;SDS011;36180;57.678;11.910;2023-04-10T11:14:45;4.50;;;2.63;;
49962;SDS011;36180;57.678;11.910;2023-04-10T11:20:11;4.68;;;2.40;;
49962;SDS011;36180;57.678;11.910;2023-04-10T11:25:51;5.20;;;2.20;;
49962;SDS011;36180;57.678;11.910;2023-04-10T11:28:32;4.07;;;2.00;;
49962;SDS011;36180;57.678;11.910;2023-04-10T11:31:12;4.85;;;2.28;;
49962;SDS011;36180;57.678;11.910;2023-04-10T11:33:40;4.10;;;2.20;;
49962;SDS011;36180;57.678;11.910;2023-04-10T11:36:08;3.60;;;2.00;;
49962;SDS011;36180;57.678;11.910;2023-04-10T11:38:35;5.10;;;2.15;;
49962;SDS011;36180;57.678;11.910;2023-04-10T11:41:04;4.30;;;2.33;;
49962;SDS011;36180;57.678;11.910;2023-04-10T11:43:31;3.75;;;1.95;;
49962;SDS011;36180;57.678;11.910;2023-04-10T11:46:03;3.28;;;2.30;;
49962;SDS011;36180;57.678;11.910;2023-04-10T11:48:32;3.38;;;2.53;;
49962;SDS011;36180;57.678;11.910;2023-04-10T11:51:05;3.67;;;2.20;;
49962;SDS011;36180;57.678;11.910;2023-04-10T11:53:33;2.45;;;1.90;;
49962;SDS011;36180;57.678;11.910;2023-04-10T11:56:00;5.15;;;2.08;;
49962;SDS011;36180;57.678;11.910;2023-04-10T11:58:29;3.17;;;2.15;;
49962;SDS011;36180;57.678;11.910;2023-04-10T12:00:57;2.50;;;2.00;;
49962;SDS011;36180;57.678;11.910;2023-04-10T12:03:32;3.03;;;2.15;;
49962;SDS011;36180;57.678;11.910;2023-04-10T12:06:00;2.45;;;1.80;;
49962;SDS011;36180;57.678;11.910;2023-04-10T12:08:30;3.10;;;1.77;;
49962;SDS011;36180;57.678;11.910;2023-04-10T12:10:58;3.88;;;2.40;;
49962;SDS011;36180;57.678;11.910;2023-04-10T12:13:25;7.80;;;2.30;;
49962;SDS011;36180;57.678;11.910;2023-04-10T12:15:56;2.95;;;2.35;;
49962;SDS011;36180;57.678;11.910;2023-04-10T12:18:24;4.65;;;2.47;;
49962;SDS011;36180;57.678;11.910;2023-04-10T12:20:51;4.85;;;2.60;;
49962;SDS011;36180;57.678;11.910;2023-04-10T12:23:21;4.60;;;2.58;;
49962;SDS011;36180;57.678;11.910;2023-04-10T12:25:48;6.82;;;1.80;;
49962;SDS011;36180;57.678;11.910;2023-04-10T12:28:16;3.95;;;2.00;;
49962;SDS011;36180;57.678;11.910;2023-04-10T12:30:47;3.50;;;1.95;;
49962;SDS011;36180;57.678;11.910;2023-04-10T12:33:21;3.40;;;1.60;;
49962;SDS011;36180;57.678;11.910;2023-04-10T12:35:50;2.50;;;1.80;;
49962;SDS011;36180;57.678;11.910;2023-04-10T12:43:31;3.75;;;1.85;;
49962;SDS011;36180;57.678;11.910;2023-04-10T12:45:59;2.58;;;1.42;;
49962;SDS011;36180;57.678;11.910;2023-04-10T12:48:28;3.97;;;1.85;;
49962;SDS011;36180;57.678;11.910;2023-04-10T12:50:55;3.95;;;1.90;;
49962;SDS011;36180;57.678;11.910;2023-04-10T12:53:23;5.85;;;2.45;;
49962;SDS011;36180;57.678;11.910;2023-04-10T12:55:57;4.50;;;2.05;;
49962;SDS011;36180;57.678;11.910;2023-04-10T12:58:25;5.00;;;1.63;;
49962;SDS011;36180;57.678;11.910;2023-04-10T13:00:53;2.40;;;1.80;;
49962;SDS011;36180;57.678;11.910;2023-04-10T13:03:21;4.95;;;2.03;;
49962;SDS011;36180;57.678;11.910;2023-04-10T13:05:50;5.07;;;1.70;;
49962;SDS011;36180;57.678;11.910;2023-04-10T13:08:17;6.05;;;2.15;;
49962;SDS011;36180;57.678;11.910;2023-04-10T13:10:45;3.10;;;1.58;;
49962;SDS011;36180;57.678;11.910;2023-04-10T13:13:12;2.65;;;1.48;;
49962;SDS011;36180;57.678;11.910;2023-04-10T13:15:39;2.80;;;1.50;;
49962;SDS011;36180;57.678;11.910;2023-04-10T13:18:07;2.70;;;1.45;;
49962;SDS011;36180;57.678;11.910;2023-04-10T13:20:35;3.55;;;1.85;;
49962;SDS011;36180;57.678;11.910;2023-04-10T13:23:03;2.88;;;1.77;;
49962;SDS011;36180;57.678;11.910;2023-04-10T13:25:31;3.75;;;1.80;;
49962;SDS011;36180;57.678;11.910;2023-04-10T13:28:00;2.10;;;1.80;;
49962;SDS011;36180;57.678;11.910;2023-04-10T13:30:27;2.78;;;1.90;;
49962;SDS011;36180;57.678;11.910;2023-04-10T13:32:55;2.85;;;1.60;;
49962;SDS011;36180;57.678;11.910;2023-04-10T13:35:22;2.25;;;1.48;;
49962;SDS011;36180;57.678;11.910;2023-04-10T13:37:49;3.33;;;1.70;;
49962;SDS011;36180;57.678;11.910;2023-04-10T13:40:20;4.13;;;2.00;;
49962;SDS011;36180;57.678;11.910;2023-04-10T13:42:47;4.50;;;1.80;;
49962;SDS011;36180;57.678;11.910;2023-04-10T13:45:14;3.03;;;2.28;;
49962;SDS011;36180;57.678;11.910;2023-04-10T13:47:41;2.83;;;1.75;;
49962;SDS011;36180;57.678;11.910;2023-04-10T13:50:09;2.78;;;1.88;;
49962;SDS011;36180;57.678;11.910;2023-04-10T13:52:36;3.08;;;2.00;;
49962;SDS011;36180;57.678;11.910;2023-04-10T13:55:03;6.03;;;2.05;;
49962;SDS011;36180;57.678;11.910;2023-04-10T13:57:33;4.10;;;2.00;;
49962;SDS011;36180;57.678;11.910;2023-04-10T14:00:00;5.07;;;2.95;;
49962;SDS011;36180;57.678;11.910;2023-04-10T14:02:38;8.90;;;2.17;;
49962;SDS011;36180;57.678;11.910;2023-04-10T14:05:05;3.28;;;2.10;;
49962;SDS011;36180;57.678;11.910;2023-04-10T14:07:32;4.57;;;2.20;;
49962;SDS011;36180;57.678;11.910;2023-04-10T14:10:00;3.92;;;2.00;;
49962;SDS011;36180;57.678;11.910;2023-04-10T14:12:27;3.90;;;2.25;;
49962;SDS011;36180;57.678;11.910;2023-04-10T14:14:56;6.18;;;2.10;;
49962;SDS011;36180;57.678;11.910;2023-04-10T14:17:23;3.65;;;2.10;;
49962;SDS011;36180;57.678;11.910;2023-04-10T14:19:50;5.13;;;2.15;;
49962;SDS011;36180;57.678;11.910;2023-04-10T14:22:18;6.43;;;2.10;;
49962;SDS011;36180;57.678;11.910;2023-04-10T14:24:45;4.03;;;1.90;;
49962;SDS011;36180;57.678;11.910;2023-04-10T14:27:12;5.10;;;2.10;;
49962;SDS011;36180;57.678;11.910;2023-04-10T14:29:39;4.47;;;2.50;;
49962;SDS011;36180;57.678;11.910;2023-04-10T14:32:08;3.95;;;2.13;;
49962;SDS011;36180;57.678;11.910;2023-04-10T14:34:35;3.70;;;1.83;;
49962;SDS011;36180;57.678;11.910;2023-04-10T14:37:02;3.80;;;2.13;;
49962;SDS011;36180;57.678;11.910;2023-04-10T14:39:29;3.75;;;2.22;;
49962;SDS011;36180;57.678;11.910;2023-04-10T14:41:58;3.28;;;2.30;;
49962;SDS011;36180;57.678;11.910;2023-04-10T14:44:26;4.65;;;2.35;;
49962;SDS011;36180;57.678;11.910;2023-04-10T14:46:53;3.33;;;2.10;;
49962;SDS011;36180;57.678;11.910;2023-04-10T14:49:22;6.22;;;2.50;;
49962;SDS011;36180;57.678;11.910;2023-04-10T14:51:49;2.83;;;2.28;;
49962;SDS011;36180;57.678;11.910;2023-04-10T14:54:16;5.35;;;2.22;;
49962;SDS011;36180;57.678;11.910;2023-04-10T14:56:46;7.97;;;2.30;;
49962;SDS011;36180;57.678;11.910;2023-04-10T14:59:13;6.70;;;2.22;;
49962;SDS011;36180;57.678;11.910;2023-04-10T15:01:40;4.43;;;2.42;;
49962;SDS011;36180;57.678;11.910;2023-04-10T15:04:07;4.38;;;2.30;;
49962;SDS011;36180;57.678;11.910;2023-04-10T15:06:37;4.45;;;2.58;;
49962;SDS011;36180;57.678;11.910;2023-04-10T15:09:04;7.63;;;2.42;;
49962;SDS011;36180;57.678;11.910;2023-04-10T15:11:31;4.82;;;2.17;;